createdAt,value
2019-01-17T00:03:36.223Z,99230.95
2019-01-17T00:08:55.860Z,99241.20
2019-01-17T00:14:04.022Z,99240.03
2019-01-17T00:19:25.204Z,99235.30
2019-01-17T00:24:33.047Z,99244.48
2019-01-17T00:29:40.855Z,99231.27
2019-01-17T00:34:58.092Z,99237.38
2019-01-17T00:40:11.865Z,99232.75
2019-01-17T00:45:17.059Z,99227.55
2019-01-17T00:50:36.737Z,99235.24
2019-01-17T00:55:58.042Z,99233.57
2019-01-17T01:01:20.810Z,99231.36
2019-01-17T01:06:28.349Z,99229.78
2019-01-17T01:11:35.852Z,99219.47
2019-01-17T01:16:52.496Z,99229.81
2019-01-17T01:22:00.253Z,99230.75
2019-01-17T01:27:14.446Z,99225.14
2019-01-17T01:32:31.435Z,99229.40
2019-01-17T01:37:51.434Z,99230.69
2019-01-17T01:43:02.265Z,99238.92
2019-01-17T01:48:18.861Z,99238.62
2019-01-17T01:53:22.285Z,99249.55
2019-01-17T01:58:25.828Z,99250.02
2019-01-17T02:03:29.268Z,99250.98
2019-01-17T02:08:32.693Z,99248.95
2019-01-17T02:13:36.399Z,99243.23
2019-01-17T02:18:39.880Z,99251.90
2019-01-17T02:23:43.342Z,99248.08
2019-01-17T02:28:46.768Z,99262.15
2019-01-17T02:33:50.211Z,99257.89
2019-01-17T02:38:53.713Z,99254.80
2019-01-17T02:43:57.210Z,99269.44
2019-01-17T02:49:07.000Z,99272.79
2019-01-17T02:54:10.530Z,99284.36
2019-01-17T02:59:24.802Z,99291.71
2019-01-17T03:04:34.790Z,99280.55
2019-01-17T03:09:35.841Z,99294.35
2019-01-17T03:14:41.922Z,99297.77
2019-01-17T03:19:47.406Z,99296.00
2019-01-17T03:24:56.028Z,99302.05
2019-01-17T03:30:04.222Z,99292.65
2019-01-17T03:35:07.902Z,99291.38
2019-01-17T03:40:14.200Z,99288.39
2019-01-17T03:45:20.357Z,99297.44
2019-01-17T03:50:23.812Z,99300.02
2019-01-17T03:55:27.564Z,99299.69
2019-01-17T04:00:31.492Z,99302.19
2019-01-17T04:05:34.998Z,99298.89
2019-01-17T04:10:38.439Z,99292.09
2019-01-17T04:15:41.875Z,99310.18
2019-01-17T04:20:45.336Z,99312.43
2019-01-17T04:25:50.296Z,99292.14
2019-01-17T04:30:53.819Z,99282.61
2019-01-17T04:35:57.223Z,99292.17
2019-01-17T04:41:00.776Z,99293.92
2019-01-17T04:46:04.323Z,99287.94
2019-01-17T04:51:07.810Z,99302.05
2019-01-17T04:56:11.311Z,99302.50
2019-01-17T05:01:16.267Z,99297.83
2019-01-17T05:06:19.775Z,99298.63
2019-01-17T05:11:23.213Z,99302.48
2019-01-17T05:16:26.647Z,99297.42
2019-01-17T05:21:30.170Z,99296.91
2019-01-17T05:26:33.682Z,99283.55
2019-01-17T05:31:37.286Z,99279.25
2019-01-17T05:36:40.726Z,99284.34
2019-01-17T05:41:44.238Z,99283.02
2019-01-17T05:46:47.770Z,99280.03
2019-01-17T05:51:51.205Z,99278.67
2019-01-17T05:56:54.626Z,99290.64
2019-01-17T06:01:58.053Z,99280.71
2019-01-17T06:07:01.518Z,99287.14
2019-01-17T06:12:05.087Z,99285.11
2019-01-17T06:17:08.676Z,99299.22
2019-01-17T06:22:12.103Z,99299.16
2019-01-17T06:27:15.603Z,99285.80
2019-01-17T06:32:19.029Z,99291.82
2019-01-17T06:37:22.487Z,99282.36
2019-01-17T06:42:25.921Z,99275.41
2019-01-17T06:47:29.377Z,99274.50
2019-01-17T06:52:32.896Z,99274.08
2019-01-17T06:57:36.425Z,99280.63
2019-01-17T07:02:39.994Z,99284.89
2019-01-17T07:07:43.548Z,99291.74
2019-01-17T07:12:47.009Z,99284.95
2019-01-17T07:17:50.538Z,99285.86
2019-01-17T07:22:54.004Z,99293.77
2019-01-17T07:27:59.555Z,99293.00
2019-01-17T07:33:03.068Z,99289.59
2019-01-17T07:38:06.737Z,99293.56
2019-01-17T07:43:10.241Z,99291.47
2019-01-17T07:48:13.662Z,99291.50
2019-01-17T07:53:17.072Z,99283.36
2019-01-17T07:58:20.495Z,99291.16
2019-01-17T08:03:23.935Z,99294.13
2019-01-17T08:08:27.382Z,99295.00
2019-01-17T08:13:30.879Z,99290.78
2019-01-17T08:18:34.338Z,99295.91
2019-01-17T08:23:37.758Z,99296.78
2019-01-17T08:28:41.249Z,99304.07
2019-01-17T08:33:44.675Z,99307.91
2019-01-17T08:38:48.804Z,99312.13
2019-01-17T08:43:52.442Z,99313.44
2019-01-17T08:48:56.058Z,99310.74
2019-01-17T08:53:59.516Z,99317.13
2019-01-17T08:59:02.962Z,99315.71
2019-01-17T09:04:06.477Z,99314.37
2019-01-17T09:09:09.913Z,99316.84
2019-01-17T09:14:13.351Z,99314.59
2019-01-17T09:19:16.779Z,99309.78
2019-01-17T09:24:20.221Z,99318.39
2019-01-17T09:29:23.759Z,99310.30
2019-01-17T09:34:27.203Z,99303.70
2019-01-17T09:39:30.637Z,99303.55
2019-01-17T09:44:34.081Z,99313.46
2019-01-17T09:49:37.521Z,99304.73
2019-01-17T09:54:40.963Z,99305.52
2019-01-17T09:59:44.405Z,99307.76
2019-01-17T10:04:47.844Z,99309.66
2019-01-17T10:09:51.263Z,99297.91
2019-01-17T10:14:54.709Z,99290.09
2019-01-17T10:20:06.805Z,99291.08
2019-01-17T10:25:29.378Z,99272.30
2019-01-17T10:30:35.863Z,99264.10
2019-01-17T10:36:02.915Z,99258.43
2019-01-17T10:41:12.271Z,99249.59
2019-01-17T10:46:30.669Z,99239.09
2019-01-17T10:51:45.922Z,99231.30
2019-01-17T10:57:19.401Z,99225.09
2019-01-17T11:02:40.641Z,99210.79
2019-01-17T11:07:49.608Z,99202.70
2019-01-17T11:13:04.991Z,99187.69
2019-01-17T11:18:30.883Z,99178.16
2019-01-17T11:23:37.376Z,99179.11
2019-01-17T11:28:50.066Z,99160.70
2019-01-17T11:34:05.594Z,99158.64
2019-01-17T11:39:36.228Z,99139.66
2019-01-17T11:44:42.986Z,99132.81
2019-01-17T11:50:08.979Z,99138.27
2019-01-17T11:55:15.759Z,99135.98
2019-01-17T12:00:39.918Z,99162.77
2019-01-17T12:05:43.331Z,99187.39
2019-01-17T12:11:06.211Z,99191.05
2019-01-17T12:16:11.450Z,99201.63
2019-01-17T12:21:25.412Z,99207.31
2019-01-17T12:26:36.885Z,99206.41
2019-01-17T12:31:59.807Z,99215.80
2019-01-17T12:37:24.497Z,99206.83
2019-01-17T12:42:33.132Z,99205.75
2019-01-17T12:47:37.512Z,99211.80
2019-01-17T12:52:40.941Z,99218.28
2019-01-17T12:57:44.361Z,99222.58
2019-01-17T13:02:47.871Z,99229.59
2019-01-17T13:07:51.299Z,99209.99
2019-01-17T13:12:54.741Z,99203.48
2019-01-17T13:17:58.171Z,99209.52
2019-01-17T13:23:01.590Z,99210.03
2019-01-17T13:28:05.148Z,99209.31
2019-01-17T13:33:09.390Z,99206.70
2019-01-17T13:38:12.805Z,99210.98
2019-01-17T13:43:16.230Z,99217.38
2019-01-17T13:48:19.667Z,99220.39
2019-01-17T13:53:23.093Z,99237.59
2019-01-17T13:58:26.545Z,99239.82
2019-01-17T14:03:29.970Z,99249.13
2019-01-17T14:08:33.406Z,99253.80
2019-01-17T14:13:36.848Z,99264.03
2019-01-17T14:18:40.277Z,99272.62
2019-01-17T14:23:43.877Z,99278.22
2019-01-17T14:28:47.294Z,99290.26
2019-01-17T14:33:50.706Z,99306.19
2019-01-17T14:38:54.134Z,99318.22
2019-01-17T14:43:57.532Z,99327.18
2019-01-17T14:49:00.945Z,99340.91
2019-01-17T14:54:04.516Z,99360.32
2019-01-17T14:59:07.943Z,99370.70
2019-01-17T15:04:11.363Z,99366.82
2019-01-17T15:09:14.808Z,99383.59
2019-01-17T15:14:18.233Z,99385.25
2019-01-17T15:19:21.656Z,99387.30
2019-01-17T15:24:25.103Z,99402.88
2019-01-17T15:29:28.514Z,99418.75
2019-01-17T15:34:31.934Z,99439.82
2019-01-17T15:39:35.362Z,99454.48
2019-01-17T15:44:38.773Z,99462.23
2019-01-17T15:49:42.215Z,99464.48
2019-01-17T15:54:45.657Z,99477.33
2019-01-17T15:59:49.087Z,99512.63
2019-01-17T16:04:52.538Z,99517.88
2019-01-17T16:09:55.968Z,99541.97
2019-01-17T16:14:59.507Z,99540.27
2019-01-17T16:20:03.383Z,99537.27
2019-01-17T16:25:09.328Z,99539.44
2019-01-17T16:30:27.438Z,99553.17
2019-01-17T16:35:30.859Z,99564.33
2019-01-17T16:40:34.274Z,99587.52
2019-01-17T16:45:37.699Z,99590.97
2019-01-17T16:50:41.127Z,99597.83
2019-01-17T16:55:44.562Z,99604.70
2019-01-17T17:00:48.287Z,99609.00
2019-01-17T17:05:51.705Z,99613.29
2019-01-17T17:10:55.224Z,99616.30
2019-01-17T17:15:58.652Z,99627.90
2019-01-17T17:21:02.081Z,99637.32
2019-01-17T17:26:05.579Z,99636.46
2019-01-17T17:31:08.991Z,99654.05
2019-01-17T17:36:12.414Z,99651.04
2019-01-17T17:41:15.837Z,99662.20
2019-01-17T17:46:19.285Z,99666.89
2019-01-17T17:51:22.727Z,99682.79
2019-01-17T17:56:26.332Z,99692.23
2019-01-17T18:01:30.031Z,99701.67
2019-01-17T18:06:33.532Z,99703.39
2019-01-17T18:11:37.045Z,99708.11
2019-01-17T18:16:40.474Z,99718.42
2019-01-17T18:21:43.904Z,99717.55
2019-01-17T18:26:48.180Z,99724.81
2019-01-17T18:31:51.681Z,99743.29
2019-01-17T18:36:55.094Z,99774.99
2019-01-17T18:41:58.687Z,99742.98
2019-01-17T18:47:02.110Z,99756.70
2019-01-17T18:52:05.526Z,99764.34
2019-01-17T18:57:08.940Z,99778.56
2019-01-17T19:02:12.357Z,99784.19
2019-01-17T19:07:16.120Z,99802.31
2019-01-17T19:12:19.622Z,99813.42
2019-01-17T19:17:23.048Z,99828.86
2019-01-17T19:22:26.469Z,99837.01
2019-01-17T19:27:29.904Z,99852.49
2019-01-17T19:32:34.266Z,99855.02
2019-01-17T19:37:37.838Z,99860.63
2019-01-17T19:42:41.255Z,99872.21
2019-01-17T19:47:44.738Z,99887.66
2019-01-17T19:52:48.531Z,99899.23
2019-01-17T19:57:51.931Z,99907.71
2019-01-17T20:02:55.387Z,99918.01
2019-01-17T20:07:58.971Z,99922.34
2019-01-17T20:13:02.481Z,99930.07
2019-01-17T20:18:06.114Z,99933.92
2019-01-17T20:23:09.538Z,99938.20
2019-01-17T20:28:12.972Z,99952.80
2019-01-17T20:33:16.397Z,99963.87
2019-01-17T20:38:19.815Z,99968.65
2019-01-17T20:43:23.310Z,99984.47
2019-01-17T20:48:26.732Z,99994.39
2019-01-17T20:53:30.157Z,100008.53
2019-01-17T20:58:33.632Z,100016.14
2019-01-17T21:03:37.136Z,100025.62
2019-01-17T21:08:40.576Z,100030.28
2019-01-17T21:13:44.017Z,100032.43
2019-01-17T21:18:47.439Z,100041.00
2019-01-17T21:23:50.858Z,100062.38
2019-01-17T21:28:54.286Z,100070.11
2019-01-17T21:33:57.812Z,100082.11
2019-01-17T21:39:01.359Z,100089.88
2019-01-17T21:44:04.996Z,100106.19
2019-01-17T21:49:08.427Z,100117.73
2019-01-17T21:54:11.866Z,100146.14
2019-01-17T21:59:15.294Z,100153.17
2019-01-17T22:04:18.704Z,100163.61
2019-01-17T22:09:22.155Z,100160.97
2019-01-17T22:14:25.581Z,100164.81
2019-01-17T22:19:29.105Z,100178.82
2019-01-17T22:24:32.518Z,100182.27
2019-01-17T22:29:35.954Z,100183.08
2019-01-17T22:34:39.467Z,100199.82
2019-01-17T22:39:42.964Z,100201.97
2019-01-17T22:44:46.470Z,100213.52
2019-01-17T22:49:49.972Z,100216.51
2019-01-17T22:54:53.389Z,100232.91
2019-01-17T22:59:56.820Z,100237.53
2019-01-17T23:05:00.270Z,100251.77
2019-01-17T23:10:05.919Z,100260.77
2019-01-17T23:15:09.624Z,100277.91
2019-01-17T23:20:13.124Z,100276.14
2019-01-17T23:25:16.618Z,100287.00
2019-01-17T23:30:20.190Z,100308.42
2019-01-17T23:35:23.608Z,100310.39
2019-01-17T23:40:27.033Z,100322.16
2019-01-17T23:45:30.446Z,100326.91
2019-01-17T23:50:33.873Z,100319.50
2019-01-17T23:55:37.313Z,100334.26
